createdAt,value
2023-01-24T00:01:23.770Z,-1.25
2023-01-24T00:03:53.722Z,-1.27
2023-01-24T00:06:20.598Z,-1.21
2023-01-24T00:08:47.366Z,-1.20
2023-01-24T00:11:14.573Z,-1.22
2023-01-24T00:13:41.393Z,-1.23
2023-01-24T00:16:24.859Z,-1.22
2023-01-24T00:18:52.243Z,-1.20
2023-01-24T00:21:22.472Z,-1.18
2023-01-24T00:23:51.697Z,-1.16
2023-01-24T00:26:20.454Z,-1.15
2023-01-24T00:28:47.748Z,-1.16
2023-01-24T00:31:15.153Z,-1.16
2023-01-24T00:33:42.157Z,-1.22
2023-01-24T00:36:10.181Z,-1.16
2023-01-24T00:38:38.942Z,-1.14
2023-01-24T00:41:05.710Z,-1.18
2023-01-24T00:43:32.526Z,-1.15
2023-01-24T00:45:59.868Z,-1.12
2023-01-24T00:48:26.708Z,-1.09
2023-01-24T00:50:53.531Z,-1.08
2023-01-24T00:53:20.685Z,-1.05
2023-01-24T00:55:48.939Z,-1.07
2023-01-24T00:58:15.993Z,-1.24
2023-01-24T01:00:42.838Z,-1.07
2023-01-24T01:03:15.438Z,-1.09
2023-01-24T01:05:42.962Z,-1.09
2023-01-24T01:08:10.716Z,-1.08
2023-01-24T01:10:37.913Z,-1.08
2023-01-24T01:13:06.041Z,-1.08
2023-01-24T01:15:33.125Z,-1.09
2023-01-24T01:18:00.305Z,-1.09
2023-01-24T01:20:28.090Z,-1.07
2023-01-24T01:22:55.019Z,-1.04
2023-01-24T01:25:21.855Z,-1.03
2023-01-24T01:27:48.731Z,-1.05
2023-01-24T01:30:22.127Z,-1.01
2023-01-24T01:32:48.972Z,-1.03
2023-01-24T01:35:15.847Z,-1.00
2023-01-24T01:37:42.571Z,-1.01
2023-01-24T01:40:09.966Z,-1.08
2023-01-24T01:42:52.732Z,-0.96
2023-01-24T01:45:37.928Z,-0.97
2023-01-24T01:48:38.538Z,-0.97
2023-01-24T01:51:14.533Z,-0.97
2023-01-24T01:53:48.393Z,-0.94
2023-01-24T01:56:31.668Z,-0.93
2023-01-24T01:59:03.815Z,-0.91
2023-01-24T02:01:32.135Z,-0.88
2023-01-24T02:04:08.566Z,-0.88
2023-01-24T02:06:53.104Z,-0.91
2023-01-24T02:09:23.539Z,-0.91
2023-01-24T02:11:54.182Z,-0.91
2023-01-24T02:14:43.446Z,-0.94
2023-01-24T02:17:11.815Z,-0.99
2023-01-24T02:20:02.682Z,-1.00
2023-01-24T02:22:51.380Z,-1.03
2023-01-24T02:25:42.750Z,-1.06
2023-01-24T02:28:10.211Z,-1.11
2023-01-24T02:30:38.363Z,-1.16
2023-01-24T02:33:13.934Z,-1.25
2023-01-24T02:35:40.729Z,-1.11
2023-01-24T02:38:16.193Z,-1.09
2023-01-24T02:40:45.411Z,-1.09
2023-01-24T02:43:14.433Z,-1.07
2023-01-24T02:45:41.117Z,-1.11
2023-01-24T02:48:10.714Z,-1.11
2023-01-24T02:50:56.279Z,-1.11
2023-01-24T02:53:32.437Z,-1.16
2023-01-24T02:56:19.139Z,-1.16
2023-01-24T02:58:46.117Z,-1.15
2023-01-24T03:01:15.935Z,-1.28
2023-01-24T03:03:44.320Z,-1.18
2023-01-24T03:06:13.343Z,-1.16
2023-01-24T03:08:40.354Z,-1.18
2023-01-24T03:11:10.157Z,-1.19
2023-01-24T03:13:55.773Z,-1.15
2023-01-24T03:16:41.913Z,-1.08
2023-01-24T03:19:27.534Z,-1.06
2023-01-24T03:22:15.953Z,-1.05
2023-01-24T03:25:01.189Z,-1.07
2023-01-24T03:27:48.218Z,-1.10
2023-01-24T03:30:33.632Z,-1.18
2023-01-24T03:33:24.095Z,-1.12
2023-01-24T03:35:54.847Z,-1.16
2023-01-24T03:38:42.043Z,-1.17
2023-01-24T03:41:08.864Z,-1.14
2023-01-24T03:43:35.672Z,-1.11
2023-01-24T03:46:02.575Z,-1.22
2023-01-24T03:48:37.330Z,-1.09
2023-01-24T03:51:24.510Z,-1.11
2023-01-24T03:53:51.492Z,-1.17
2023-01-24T03:56:18.264Z,-1.19
2023-01-24T03:58:45.066Z,-1.17
2023-01-24T04:01:11.867Z,-1.15
2023-01-24T04:03:38.634Z,-1.14
2023-01-24T04:06:05.622Z,-1.11
2023-01-24T04:08:32.358Z,-1.09
2023-01-24T04:10:59.119Z,-1.09
2023-01-24T04:13:25.964Z,-1.13
2023-01-24T04:15:52.722Z,-1.13
2023-01-24T04:18:19.478Z,-1.14
2023-01-24T04:20:48.238Z,-1.14
2023-01-24T04:23:15.010Z,-1.10
2023-01-24T04:25:41.848Z,-1.08
2023-01-24T04:28:08.640Z,-1.10
2023-01-24T04:30:35.436Z,-1.10
2023-01-24T04:33:02.196Z,-1.18
2023-01-24T04:35:30.514Z,-1.29
2023-01-24T04:38:04.155Z,-1.22
2023-01-24T04:40:40.732Z,-1.31
2023-01-24T04:43:07.623Z,-1.19
2023-01-24T04:45:35.968Z,-1.24
2023-01-24T04:48:02.755Z,-1.26
2023-01-24T04:50:29.538Z,-1.26
2023-01-24T04:52:56.293Z,-1.25
2023-01-24T04:55:25.471Z,-1.26
2023-01-24T04:57:52.334Z,-1.31
2023-01-24T05:00:19.286Z,-1.30
2023-01-24T05:02:46.095Z,-1.41
2023-01-24T05:05:12.959Z,-1.25
2023-01-24T05:07:39.660Z,-1.25
2023-01-24T05:10:07.191Z,-1.22
2023-01-24T05:12:36.229Z,-1.20
2023-01-24T05:15:02.940Z,-1.21
2023-01-24T05:17:30.348Z,-1.22
2023-01-24T05:19:57.067Z,-1.24
2023-01-24T05:22:23.808Z,-1.21
2023-01-24T05:24:50.565Z,-1.20
2023-01-24T05:27:19.441Z,-1.20
2023-01-24T05:29:46.246Z,-1.22
2023-01-24T05:32:13.024Z,-1.23
2023-01-24T05:34:39.785Z,-1.29
2023-01-24T05:37:06.522Z,-1.33
2023-01-24T05:39:33.350Z,-1.35
2023-01-24T05:42:00.043Z,-1.35
2023-01-24T05:44:26.816Z,-1.33
2023-01-24T05:46:53.561Z,-1.31
2023-01-24T05:49:20.289Z,-1.38
2023-01-24T05:51:46.995Z,-1.39
2023-01-24T05:54:13.782Z,-1.36
2023-01-24T05:56:40.590Z,-1.35
2023-01-24T05:59:07.325Z,-1.34
2023-01-24T06:01:34.094Z,-1.33
2023-01-24T06:04:00.812Z,-1.32
2023-01-24T06:06:27.634Z,-1.33
2023-01-24T06:08:54.356Z,-1.32
2023-01-24T06:11:26.048Z,-1.31
2023-01-24T06:13:55.823Z,-1.30
2023-01-24T06:16:25.005Z,-1.29
2023-01-24T06:18:53.779Z,-1.26
2023-01-24T06:21:42.012Z,-1.25
2023-01-24T06:24:23.369Z,-1.22
2023-01-24T06:26:51.626Z,-1.19
2023-01-24T06:29:20.119Z,-1.18
2023-01-24T06:32:05.089Z,-1.18
2023-01-24T06:35:12.794Z,-1.23
2023-01-24T06:37:47.156Z,-1.22
2023-01-24T06:40:16.352Z,-1.21
2023-01-24T06:42:43.585Z,-1.18
2023-01-24T06:45:11.350Z,-1.14
2023-01-24T06:47:38.270Z,-1.13
2023-01-24T06:50:07.306Z,-1.11
2023-01-24T06:52:33.938Z,-1.05
2023-01-24T06:55:00.917Z,-1.00
2023-01-24T06:57:27.750Z,-0.99
2023-01-24T06:59:54.530Z,-0.97
2023-01-24T07:02:21.713Z,-0.95
2023-01-24T07:04:48.432Z,-0.96
2023-01-24T07:07:15.344Z,-0.93
2023-01-24T07:09:42.115Z,-0.92
2023-01-24T07:12:08.891Z,-0.93
2023-01-24T07:14:44.352Z,-0.89
2023-01-24T07:17:11.633Z,-0.85
2023-01-24T07:19:38.867Z,-0.77
2023-01-24T07:22:05.850Z,-0.71
2023-01-24T07:24:33.639Z,-0.68
2023-01-24T07:27:00.544Z,-0.60
2023-01-24T07:29:27.266Z,-0.56
2023-01-24T07:31:54.593Z,-0.71
2023-01-24T07:34:21.651Z,-0.54
2023-01-24T07:36:48.994Z,-0.56
2023-01-24T07:39:16.179Z,-0.54
2023-01-24T07:41:46.616Z,-0.61
2023-01-24T07:44:14.405Z,-0.57
2023-01-24T07:46:41.169Z,-0.55
2023-01-24T07:49:07.964Z,-0.49
2023-01-24T07:51:37.118Z,-0.45
2023-01-24T07:54:04.234Z,-0.42
2023-01-24T07:56:30.938Z,-0.39
2023-01-24T07:58:58.633Z,-0.79
2023-01-24T08:01:31.141Z,-0.40
2023-01-24T08:03:59.211Z,-0.45
2023-01-24T08:06:26.308Z,-0.39
2023-01-24T08:08:53.107Z,-0.43
2023-01-24T08:11:19.830Z,-0.43
2023-01-24T08:13:46.952Z,-0.37
2023-01-24T08:16:14.341Z,-0.32
2023-01-24T08:18:41.948Z,-0.32
2023-01-24T08:21:08.962Z,-0.28
2023-01-24T08:23:37.537Z,-0.26
2023-01-24T08:26:07.527Z,-0.25
2023-01-24T08:28:37.653Z,-0.21
2023-01-24T08:31:04.527Z,-0.19
2023-01-24T08:33:33.775Z,-0.19
2023-01-24T08:36:00.672Z,-0.23
2023-01-24T08:38:27.433Z,-0.25
2023-01-24T08:40:54.189Z,-0.25
2023-01-24T08:43:20.957Z,-0.21
2023-01-24T08:45:48.325Z,-0.21
2023-01-24T08:48:15.152Z,-0.26
2023-01-24T08:50:44.183Z,-0.25
2023-01-24T08:55:52.944Z,-0.18
2023-01-24T08:58:19.707Z,-0.10
2023-01-24T09:00:48.960Z,-0.05
2023-01-24T09:03:18.043Z,-0.09
2023-01-24T09:05:45.076Z,0.04
2023-01-24T09:08:12.890Z,0.07
2023-01-24T09:10:40.683Z,0.09
2023-01-24T09:13:11.827Z,0.10
2023-01-24T09:15:38.586Z,0.09
2023-01-24T09:18:05.318Z,0.10
2023-01-24T09:20:32.215Z,0.14
2023-01-24T09:23:06.563Z,0.13
2023-01-24T09:25:33.327Z,0.12
2023-01-24T09:28:00.104Z,0.17
2023-01-24T09:30:27.244Z,0.21
2023-01-24T09:32:59.042Z,0.28
2023-01-24T09:35:25.846Z,0.31
2023-01-24T09:37:57.647Z,0.25
2023-01-24T09:40:51.929Z,0.41
2023-01-24T09:44:00.137Z,0.38
2023-01-24T09:46:32.757Z,0.32
2023-01-24T09:49:28.778Z,0.37
2023-01-24T09:51:55.786Z,0.36
2023-01-24T09:57:47.628Z,0.32
2023-01-24T10:00:23.073Z,0.32
2023-01-24T10:02:50.160Z,0.36
2023-01-24T10:05:18.186Z,0.36
2023-01-24T10:08:04.507Z,0.36
2023-01-24T10:10:57.605Z,0.42
2023-01-24T10:13:51.781Z,0.39
2023-01-24T10:16:28.212Z,0.40
2023-01-24T10:19:00.949Z,0.45
2023-01-24T10:21:30.699Z,0.44
2023-01-24T10:24:15.389Z,0.43
2023-01-24T10:26:42.796Z,0.48
2023-01-24T10:29:22.200Z,0.54
2023-01-24T10:32:04.037Z,0.45
2023-01-24T10:34:33.740Z,0.51
2023-01-24T10:37:16.316Z,0.46
2023-01-24T10:39:43.083Z,0.46
2023-01-24T10:42:25.116Z,0.50
2023-01-24T10:44:54.586Z,0.50
2023-01-24T10:47:50.502Z,0.56
2023-01-24T10:50:19.541Z,0.56
2023-01-24T10:52:49.768Z,0.57
2023-01-24T10:55:46.114Z,0.54
2023-01-24T10:58:25.901Z,0.67
2023-01-24T11:01:08.089Z,0.74
2023-01-24T11:03:42.338Z,0.83
2023-01-24T11:06:21.792Z,0.86
2023-01-24T11:08:55.257Z,0.90
2023-01-24T11:11:25.738Z,0.79
2023-01-24T11:14:01.572Z,0.74
2023-01-24T11:16:53.722Z,0.73
2023-01-24T11:19:40.434Z,0.68
2023-01-24T11:22:24.236Z,0.56
2023-01-24T11:24:56.484Z,0.45
2023-01-24T11:27:24.532Z,0.43
2023-01-24T11:30:06.753Z,0.46
2023-01-24T11:33:13.622Z,0.40
2023-01-24T11:35:59.215Z,0.52
2023-01-24T11:38:41.327Z,0.58
2023-01-24T11:41:11.582Z,0.54
2023-01-24T11:43:41.088Z,0.57
2023-01-24T11:46:29.461Z,0.59
2023-01-24T11:49:13.166Z,0.56
2023-01-24T11:52:14.047Z,0.54
2023-01-24T11:55:13.956Z,0.60
2023-01-24T11:57:46.787Z,0.59
2023-01-24T12:00:28.600Z,0.44
2023-01-24T12:02:57.974Z,0.49
2023-01-24T12:05:35.381Z,0.43
2023-01-24T12:08:26.529Z,0.42
2023-01-24T12:11:26.225Z,0.45
2023-01-24T12:14:09.774Z,0.46
2023-01-24T12:19:43.862Z,0.46
2023-01-24T12:22:23.834Z,0.45
2023-01-24T12:25:03.595Z,0.40
2023-01-24T12:27:36.054Z,0.38
2023-01-24T12:30:05.963Z,0.41
2023-01-24T12:32:46.473Z,0.34
2023-01-24T12:35:28.530Z,0.35
2023-01-24T12:38:21.850Z,0.35
2023-01-24T12:40:54.342Z,0.38
2023-01-24T12:43:31.801Z,0.24
2023-01-24T12:46:12.285Z,0.40
2023-01-24T12:48:58.678Z,0.24
2023-01-24T12:51:42.499Z,0.35
2023-01-24T12:54:17.804Z,0.33
2023-01-24T12:56:59.370Z,0.35
2023-01-24T12:59:33.771Z,0.38
2023-01-24T13:02:21.111Z,0.37
2023-01-24T13:04:53.456Z,0.37
2023-01-24T13:07:42.922Z,0.39
2023-01-24T13:10:37.146Z,0.38
2023-01-24T13:13:06.443Z,0.33
2023-01-24T13:15:53.135Z,0.33
2023-01-24T13:18:25.877Z,0.28
2023-01-24T13:21:05.159Z,0.29
2023-01-24T13:23:54.939Z,0.34
2023-01-24T13:26:49.203Z,0.40
2023-01-24T13:29:46.385Z,0.48
2023-01-24T13:32:16.084Z,0.50
2023-01-24T13:34:47.794Z,0.46
2023-01-24T13:37:26.669Z,0.45
2023-01-24T13:40:10.384Z,0.47
2023-01-24T13:42:39.963Z,0.39
2023-01-24T13:45:27.797Z,0.37
2023-01-24T13:47:55.725Z,0.37
2023-01-24T13:50:23.947Z,0.41
2023-01-24T13:53:00.785Z,0.40
2023-01-24T13:55:31.235Z,0.30
2023-01-24T13:58:13.941Z,0.25
2023-01-24T14:00:52.874Z,0.25
2023-01-24T14:03:23.572Z,0.28
2023-01-24T14:06:04.876Z,0.20
2023-01-24T14:08:34.101Z,0.29
2023-01-24T14:11:03.695Z,0.26
2023-01-24T14:13:48.947Z,0.24
2023-01-24T14:16:24.893Z,0.27
2023-01-24T14:18:54.977Z,0.25
2023-01-24T14:21:26.939Z,0.28
2023-01-24T14:24:02.722Z,0.28
2023-01-24T14:26:33.988Z,0.32
2023-01-24T14:29:05.306Z,0.38
2023-01-24T14:31:40.849Z,0.32
2023-01-24T14:34:22.965Z,0.34
2023-01-24T14:36:59.660Z,0.36
2023-01-24T14:39:29.385Z,0.40
2023-01-24T14:42:07.576Z,0.40
2023-01-24T14:44:40.023Z,0.43
2023-01-24T14:47:21.748Z,0.44
2023-01-24T14:49:51.497Z,0.39
2023-01-24T14:52:23.658Z,0.32
2023-01-24T14:55:34.110Z,0.32
2023-01-24T14:58:24.291Z,0.37
2023-01-24T15:00:53.158Z,0.37
2023-01-24T15:03:26.342Z,0.42
2023-01-24T15:06:17.300Z,0.45
2023-01-24T15:08:44.111Z,0.46
2023-01-24T15:11:23.248Z,0.48
2023-01-24T15:13:59.687Z,0.49
2023-01-24T15:16:40.447Z,0.46
2023-01-24T15:19:32.845Z,0.45
2023-01-24T15:24:58.988Z,0.40
2023-01-24T15:27:28.510Z,0.36
2023-01-24T15:30:15.400Z,0.31
2023-01-24T15:32:46.319Z,0.29
2023-01-24T15:35:13.909Z,0.27
2023-01-24T15:37:40.923Z,0.27
2023-01-24T15:40:19.256Z,0.33
2023-01-24T15:43:08.021Z,0.32
2023-01-24T15:45:39.158Z,0.38
2023-01-24T15:48:20.298Z,0.43
2023-01-24T15:51:07.482Z,0.47
2023-01-24T15:53:35.747Z,0.44
2023-01-24T15:56:06.440Z,0.42
2023-01-24T15:58:35.260Z,0.44
2023-01-24T16:01:04.155Z,0.44
2023-01-24T16:03:31.336Z,0.42
2023-01-24T16:06:00.671Z,0.42
2023-01-24T16:08:27.648Z,0.41
2023-01-24T16:10:59.484Z,0.42
2023-01-24T16:13:34.187Z,0.42
2023-01-24T16:16:05.387Z,0.44
2023-01-24T16:18:32.350Z,0.43
2023-01-24T16:20:59.754Z,0.40
2023-01-24T16:23:27.887Z,0.39
2023-01-24T16:25:57.003Z,0.41
2023-01-24T16:28:26.950Z,0.38
2023-01-24T16:31:00.198Z,0.41
2023-01-24T16:33:27.184Z,0.45
2023-01-24T16:35:54.242Z,0.34
2023-01-24T16:38:20.998Z,0.49
2023-01-24T16:40:47.693Z,0.53
2023-01-24T16:43:19.766Z,0.50
2023-01-24T16:45:49.027Z,0.51
2023-01-24T16:48:21.718Z,0.54
2023-01-24T16:50:48.557Z,0.50
2023-01-24T16:53:18.201Z,0.44
2023-01-24T16:55:45.124Z,0.46
2023-01-24T16:58:13.721Z,0.44
2023-01-24T17:00:40.604Z,0.36
2023-01-24T17:03:07.380Z,0.33
2023-01-24T17:05:34.127Z,0.37
2023-01-24T17:08:01.167Z,0.34
2023-01-24T17:10:28.782Z,0.40
2023-01-24T17:15:40.660Z,0.50
2023-01-24T17:18:07.768Z,0.44
2023-01-24T17:20:35.787Z,0.47
2023-01-24T17:23:02.529Z,0.46
2023-01-24T17:25:31.192Z,0.46
2023-01-24T17:27:58.429Z,0.47
2023-01-24T17:30:25.166Z,0.48
2023-01-24T17:32:51.993Z,0.46
2023-01-24T17:35:18.822Z,0.46
2023-01-24T17:37:45.619Z,0.45
2023-01-24T17:40:12.783Z,0.42
2023-01-24T17:42:39.873Z,0.36
2023-01-24T17:45:07.331Z,0.31
2023-01-24T17:47:34.122Z,0.28
2023-01-24T17:50:00.844Z,0.22
2023-01-24T17:52:33.408Z,0.30
2023-01-24T17:55:00.267Z,0.34
2023-01-24T17:57:27.185Z,0.36
2023-01-24T17:59:56.279Z,0.33
2023-01-24T18:02:23.137Z,0.37
2023-01-24T18:04:49.942Z,0.40
2023-01-24T18:07:16.765Z,0.42
2023-01-24T18:09:43.485Z,0.40
2023-01-24T18:12:10.460Z,0.40
2023-01-24T18:14:40.746Z,0.35
2023-01-24T18:17:07.997Z,0.34
2023-01-24T18:19:37.472Z,0.26
2023-01-24T18:22:04.238Z,0.34
2023-01-24T18:24:30.984Z,0.31
2023-01-24T18:27:00.746Z,0.31
2023-01-24T18:29:28.112Z,0.32
2023-01-24T18:31:55.037Z,0.35
2023-01-24T18:34:21.850Z,0.36
2023-01-24T18:36:48.637Z,0.35
2023-01-24T18:39:17.484Z,0.27
2023-01-24T18:41:44.198Z,0.26
2023-01-24T18:44:13.160Z,0.29
2023-01-24T18:46:39.897Z,0.32
2023-01-24T18:49:08.577Z,0.31
2023-01-24T18:51:35.371Z,0.32
2023-01-24T18:54:03.954Z,0.35
2023-01-24T18:56:30.781Z,0.26
2023-01-24T18:59:00.126Z,0.38
2023-01-24T19:01:27.376Z,0.39
2023-01-24T19:03:54.539Z,0.32
2023-01-24T19:06:26.349Z,0.46
2023-01-24T19:09:02.846Z,0.46
2023-01-24T19:11:32.173Z,0.49
2023-01-24T19:14:00.970Z,0.50
2023-01-24T19:16:27.878Z,0.55
2023-01-24T19:18:56.678Z,0.56
2023-01-24T19:21:30.722Z,0.56
2023-01-24T19:24:00.872Z,0.56
2023-01-24T19:26:27.972Z,0.56
2023-01-24T19:28:56.515Z,0.56
2023-01-24T19:31:23.706Z,0.50
2023-01-24T19:33:52.691Z,0.48
2023-01-24T19:36:22.022Z,0.47
2023-01-24T19:38:51.309Z,0.44
2023-01-24T19:41:18.133Z,0.47
2023-01-24T19:44:02.753Z,0.48
2023-01-24T19:46:32.331Z,0.47
2023-01-24T19:49:01.105Z,0.44
2023-01-24T19:51:27.907Z,0.36
2023-01-24T19:53:54.681Z,0.37
2023-01-24T19:56:21.649Z,0.43
2023-01-24T19:58:48.320Z,0.44
2023-01-24T20:01:20.237Z,0.41
2023-01-24T20:03:47.301Z,0.42
2023-01-24T20:06:19.886Z,0.41
2023-01-24T20:08:54.200Z,0.33
2023-01-24T20:11:23.191Z,0.29
2023-01-24T20:13:53.104Z,0.27
2023-01-24T20:16:30.662Z,0.29
2023-01-24T20:19:00.899Z,0.28
2023-01-24T20:21:30.894Z,0.31
2023-01-24T20:24:00.897Z,0.32
2023-01-24T20:26:28.752Z,0.34
2023-01-24T20:28:56.581Z,0.37
2023-01-24T20:31:25.485Z,0.40
2023-01-24T20:33:52.337Z,0.40
2023-01-24T20:36:19.182Z,0.37
2023-01-24T20:38:49.065Z,0.39
2023-01-24T20:41:18.649Z,0.43
2023-01-24T20:43:47.122Z,0.43
2023-01-24T20:46:22.895Z,0.43
2023-01-24T20:48:51.841Z,0.44
2023-01-24T20:51:20.018Z,0.46
2023-01-24T20:53:47.076Z,0.48
2023-01-24T20:56:20.602Z,0.49
2023-01-24T20:58:47.317Z,0.47
2023-01-24T21:01:20.244Z,0.49
2023-01-24T21:03:48.075Z,0.54
2023-01-24T21:06:18.687Z,0.53
2023-01-24T21:08:46.286Z,0.53
2023-01-24T21:11:25.157Z,0.54
2023-01-24T21:14:02.631Z,0.53
2023-01-24T21:16:32.103Z,0.52
2023-01-24T21:19:07.471Z,0.54
2023-01-24T21:21:37.124Z,0.54
2023-01-24T21:24:11.387Z,0.51
2023-01-24T21:26:39.883Z,0.55
2023-01-24T21:29:06.785Z,0.54
2023-01-24T21:31:35.907Z,0.48
2023-01-24T21:34:02.770Z,0.41
2023-01-24T21:36:32.997Z,0.44
2023-01-24T21:39:03.224Z,0.45
2023-01-24T21:41:48.901Z,0.45
2023-01-24T21:44:15.743Z,0.48
2023-01-24T21:46:42.555Z,0.48
2023-01-24T21:49:10.304Z,0.48
2023-01-24T21:51:48.391Z,0.42
2023-01-24T21:54:29.874Z,0.29
2023-01-24T21:57:31.903Z,0.27
2023-01-24T22:00:01.443Z,0.27
2023-01-24T22:02:35.249Z,0.30
2023-01-24T22:05:02.341Z,0.33
2023-01-24T22:07:33.986Z,0.37
2023-01-24T22:10:01.144Z,0.42
2023-01-24T22:12:28.786Z,0.38
2023-01-24T22:14:57.396Z,0.38
2023-01-24T22:17:25.220Z,0.41
2023-01-24T22:19:57.092Z,0.44
2023-01-24T22:22:42.474Z,0.49
2023-01-24T22:25:38.339Z,0.47
2023-01-24T22:28:07.556Z,0.47
2023-01-24T22:30:35.007Z,0.51
2023-01-24T22:33:02.196Z,0.53
2023-01-24T22:35:29.181Z,0.45
2023-01-24T22:37:58.422Z,0.46
2023-01-24T22:40:29.243Z,0.50
2023-01-24T22:43:04.523Z,0.55
2023-01-24T22:45:31.308Z,0.56
2023-01-24T22:48:00.634Z,0.40
2023-01-24T22:50:27.683Z,0.51
2023-01-24T22:52:54.521Z,0.43
2023-01-24T22:55:21.385Z,0.40
2023-01-24T22:57:48.213Z,0.40
2023-01-24T23:00:15.381Z,0.38
2023-01-24T23:02:42.250Z,0.38
2023-01-24T23:05:09.744Z,0.39
2023-01-24T23:07:36.758Z,0.34
2023-01-24T23:10:03.791Z,0.30
2023-01-24T23:12:49.049Z,0.32
2023-01-24T23:15:34.590Z,0.32
2023-01-24T23:18:06.864Z,0.30
2023-01-24T23:20:52.340Z,0.34
2023-01-24T23:23:19.051Z,0.31
2023-01-24T23:25:45.738Z,0.27
2023-01-24T23:28:12.465Z,0.26
2023-01-24T23:33:33.975Z,0.32
2023-01-24T23:36:02.034Z,0.38
2023-01-24T23:38:30.410Z,0.42
2023-01-24T23:40:57.324Z,0.39
2023-01-24T23:43:24.093Z,0.41
2023-01-24T23:45:50.959Z,0.42
2023-01-24T23:48:17.849Z,0.44
2023-01-24T23:50:44.598Z,0.43
2023-01-24T23:53:11.334Z,0.45
2023-01-24T23:55:41.423Z,0.41
2023-01-24T23:58:08.115Z,0.35
